createdAt,value
2022-09-14T00:01:24.402Z,11.50
2022-09-14T00:03:52.998Z,10.35
2022-09-14T00:06:19.453Z,9.90
2022-09-14T00:08:49.639Z,11.43
2022-09-14T00:11:16.043Z,11.82
2022-09-14T00:13:43.989Z,10.50
2022-09-14T00:16:24.181Z,11.20
2022-09-14T00:18:51.469Z,10.68
2022-09-14T00:21:17.955Z,11.40
2022-09-14T00:23:44.297Z,13.18
2022-09-14T00:26:12.780Z,13.00
2022-09-14T00:28:43.463Z,10.18
2022-09-14T00:31:09.983Z,11.82
2022-09-14T00:33:37.319Z,11.60
2022-09-14T00:36:11.366Z,10.43
2022-09-14T00:38:37.884Z,12.25
2022-09-14T00:41:07.386Z,12.73
2022-09-14T00:43:34.181Z,9.48
2022-09-14T00:46:02.374Z,11.13
2022-09-14T00:48:29.712Z,10.25
2022-09-14T00:50:56.202Z,10.57
2022-09-14T00:53:22.807Z,11.25
2022-09-14T00:55:49.178Z,13.27
2022-09-14T00:58:15.560Z,9.98
2022-09-14T01:00:42.948Z,10.23
2022-09-14T01:03:09.389Z,11.25
2022-09-14T01:05:45.632Z,10.15
2022-09-14T01:08:18.143Z,13.15
2022-09-14T01:10:44.745Z,8.90
2022-09-14T01:13:29.836Z,10.23
2022-09-14T01:15:59.228Z,11.40
2022-09-14T01:18:45.713Z,12.57
2022-09-14T01:21:18.959Z,10.43
2022-09-14T01:24:04.116Z,12.13
2022-09-14T01:26:30.459Z,12.10
2022-09-14T01:28:56.769Z,11.95
2022-09-14T01:31:43.457Z,12.63
2022-09-14T01:34:28.319Z,15.85
2022-09-14T01:36:57.863Z,13.32
2022-09-14T01:39:24.473Z,13.25
2022-09-14T01:41:52.535Z,11.23
2022-09-14T01:44:22.416Z,12.85
2022-09-14T01:46:51.484Z,12.27
2022-09-14T01:49:27.357Z,11.25
2022-09-14T01:51:58.624Z,10.93
2022-09-14T01:54:26.911Z,11.48
2022-09-14T01:56:55.510Z,11.80
2022-09-14T01:59:26.544Z,14.07
2022-09-14T02:01:52.882Z,10.43
2022-09-14T02:04:22.997Z,15.23
2022-09-14T02:06:49.629Z,12.80
2022-09-14T02:09:18.170Z,11.02
2022-09-14T02:11:44.594Z,11.93
2022-09-14T02:14:10.986Z,11.50
2022-09-14T02:16:37.618Z,15.60
2022-09-14T02:19:04.281Z,10.55
2022-09-14T02:21:32.120Z,12.93
2022-09-14T02:23:59.139Z,11.25
2022-09-14T02:26:25.870Z,13.13
2022-09-14T02:28:56.034Z,13.05
2022-09-14T02:31:41.299Z,12.57
2022-09-14T02:34:40.146Z,12.33
2022-09-14T02:37:27.672Z,14.10
2022-09-14T02:40:06.063Z,14.77
2022-09-14T02:42:37.157Z,13.65
2022-09-14T02:45:03.593Z,12.32
2022-09-14T02:47:41.801Z,15.80
2022-09-14T02:50:24.047Z,13.77
2022-09-14T02:53:01.900Z,12.65
2022-09-14T02:55:30.940Z,11.00
2022-09-14T02:58:00.537Z,15.77
2022-09-14T03:00:27.751Z,14.88
2022-09-14T03:02:54.423Z,15.27
2022-09-14T03:05:20.778Z,14.73
2022-09-14T03:07:47.119Z,17.73
2022-09-14T03:10:13.465Z,20.17
2022-09-14T03:12:39.814Z,16.98
2022-09-14T03:15:06.648Z,16.98
2022-09-14T03:17:32.981Z,17.73
2022-09-14T03:19:59.693Z,19.67
2022-09-14T03:22:26.014Z,22.27
2022-09-14T03:24:52.365Z,19.15
2022-09-14T03:27:18.689Z,23.52
2022-09-14T03:29:45.019Z,20.58
2022-09-14T03:32:12.416Z,21.67
2022-09-14T03:34:38.815Z,21.42
2022-09-14T03:37:06.368Z,20.48
2022-09-14T03:39:32.955Z,18.40
2022-09-14T03:41:59.263Z,19.55
2022-09-14T03:44:25.974Z,16.98
2022-09-14T03:46:52.365Z,17.35
2022-09-14T03:49:18.729Z,15.75
2022-09-14T03:51:45.102Z,16.33
2022-09-14T03:54:11.430Z,16.00
2022-09-14T03:56:37.885Z,16.85
2022-09-14T03:59:04.721Z,13.52
2022-09-14T04:01:32.815Z,15.57
2022-09-14T04:03:59.225Z,13.88
2022-09-14T04:06:26.141Z,13.48
2022-09-14T04:08:52.488Z,14.43
2022-09-14T04:11:20.506Z,11.35
2022-09-14T04:13:47.251Z,12.75
2022-09-14T04:16:14.345Z,9.63
2022-09-14T04:18:40.888Z,10.18
2022-09-14T04:21:08.862Z,10.70
2022-09-14T04:23:42.337Z,10.95
2022-09-14T04:26:18.875Z,9.88
2022-09-14T04:28:45.439Z,11.43
2022-09-14T04:31:12.328Z,9.75
2022-09-14T04:33:39.486Z,12.60
2022-09-14T04:36:07.919Z,10.35
2022-09-14T04:38:34.932Z,12.85
2022-09-14T04:41:04.377Z,12.90
2022-09-14T04:43:31.589Z,11.15
2022-09-14T04:46:01.619Z,17.35
2022-09-14T04:48:28.367Z,14.73
2022-09-14T04:50:54.711Z,15.63
2022-09-14T04:53:21.107Z,14.57
2022-09-14T04:55:47.432Z,13.15
2022-09-14T04:58:13.789Z,14.15
2022-09-14T05:00:40.973Z,13.90
2022-09-14T05:03:07.354Z,14.27
2022-09-14T05:05:35.173Z,13.10
2022-09-14T05:10:27.787Z,17.83
2022-09-14T05:12:54.118Z,15.35
2022-09-14T05:15:20.478Z,19.55
2022-09-14T05:17:46.851Z,15.18
2022-09-14T05:20:13.208Z,15.18
2022-09-14T05:22:39.547Z,14.45
2022-09-14T05:25:06.448Z,17.27
2022-09-14T05:27:32.853Z,16.40
2022-09-14T05:29:59.242Z,18.52
2022-09-14T05:32:25.588Z,20.27
2022-09-14T05:34:51.941Z,17.10
2022-09-14T05:37:18.294Z,21.02
2022-09-14T05:39:44.686Z,17.25
2022-09-14T05:42:11.054Z,19.65
2022-09-14T05:44:37.403Z,20.20
2022-09-14T05:47:03.754Z,17.77
2022-09-14T05:49:30.129Z,17.90
2022-09-14T05:51:56.502Z,17.27
2022-09-14T05:54:23.052Z,18.02
2022-09-14T05:56:49.814Z,19.10
2022-09-14T05:59:16.139Z,20.10
2022-09-14T06:01:42.615Z,19.73
2022-09-14T06:04:09.978Z,19.10
2022-09-14T06:06:36.344Z,20.67
2022-09-14T06:09:03.448Z,20.70
2022-09-14T06:11:31.322Z,20.90
2022-09-14T06:13:57.685Z,17.60
2022-09-14T06:16:24.768Z,21.83
2022-09-14T06:18:51.215Z,17.90
2022-09-14T06:21:19.540Z,21.35
2022-09-14T06:23:46.491Z,17.60
2022-09-14T06:26:14.624Z,16.85
2022-09-14T06:28:41.198Z,17.00
2022-09-14T06:31:09.920Z,18.23
2022-09-14T06:33:37.006Z,15.93
2022-09-14T06:36:04.893Z,17.02
2022-09-14T06:38:31.222Z,17.80
2022-09-14T06:40:58.292Z,16.70
2022-09-14T06:43:24.864Z,17.42
2022-09-14T06:46:00.183Z,17.95
2022-09-14T06:48:31.162Z,16.95
2022-09-14T06:50:57.728Z,17.40
2022-09-14T06:53:24.117Z,16.42
2022-09-14T06:55:50.684Z,16.98
2022-09-14T06:58:17.021Z,17.85
2022-09-14T07:00:43.352Z,18.75
2022-09-14T07:03:09.769Z,15.68
2022-09-14T07:05:36.127Z,18.52
2022-09-14T07:08:02.519Z,16.75
2022-09-14T07:10:28.941Z,16.80
2022-09-14T07:12:55.564Z,16.25
2022-09-14T07:15:22.136Z,16.98
2022-09-14T07:17:48.502Z,15.93
2022-09-14T07:20:15.651Z,16.45
2022-09-14T07:22:42.342Z,17.45
2022-09-14T07:25:09.328Z,17.80
2022-09-14T07:27:38.621Z,16.13
2022-09-14T07:30:06.466Z,18.13
2022-09-14T07:32:32.789Z,16.23
2022-09-14T07:34:59.134Z,18.75
2022-09-14T07:37:25.489Z,16.42
2022-09-14T07:39:51.844Z,17.13
2022-09-14T07:42:18.187Z,18.88
2022-09-14T07:44:44.589Z,16.33
2022-09-14T07:47:10.911Z,17.30
2022-09-14T07:49:37.217Z,16.48
2022-09-14T07:52:03.638Z,19.17
2022-09-14T07:54:30.083Z,16.85
2022-09-14T07:56:56.399Z,16.83
2022-09-14T07:59:38.232Z,19.83
2022-09-14T08:02:06.026Z,20.20
2022-09-14T08:04:33.574Z,17.73
2022-09-14T08:09:27.776Z,16.48
2022-09-14T08:11:54.153Z,15.93
2022-09-14T08:14:21.034Z,16.88
2022-09-14T08:16:47.420Z,18.80
2022-09-14T08:19:16.525Z,17.08
2022-09-14T08:21:46.925Z,18.45
2022-09-14T08:24:15.513Z,16.50
2022-09-14T08:26:41.862Z,19.20
2022-09-14T08:29:08.242Z,17.55
2022-09-14T08:31:38.936Z,19.92
2022-09-14T08:34:06.054Z,19.20
2022-09-14T08:36:34.045Z,18.35
2022-09-14T08:39:03.284Z,22.45
2022-09-14T08:41:32.389Z,18.92
2022-09-14T08:44:01.760Z,17.17
2022-09-14T08:46:30.626Z,16.35
2022-09-14T08:48:57.139Z,16.58
2022-09-14T08:51:23.625Z,20.25
2022-09-14T08:53:52.270Z,18.67
2022-09-14T08:56:20.647Z,18.25
2022-09-14T08:59:01.976Z,17.08
2022-09-14T09:01:40.633Z,16.83
2022-09-14T09:04:06.985Z,15.95
2022-09-14T09:06:45.418Z,17.33
2022-09-14T09:09:27.486Z,21.20
2022-09-14T09:11:55.362Z,15.23
2022-09-14T09:14:23.993Z,15.88
2022-09-14T09:16:53.386Z,14.98
2022-09-14T09:19:25.709Z,16.27
2022-09-14T09:21:55.248Z,15.60
2022-09-14T09:24:21.618Z,15.35
2022-09-14T09:26:47.982Z,15.30
2022-09-14T09:29:14.384Z,13.68
2022-09-14T09:31:44.292Z,17.95
2022-09-14T09:34:14.987Z,15.00
2022-09-14T09:36:43.736Z,15.23
2022-09-14T09:39:10.150Z,14.20
2022-09-14T09:41:48.442Z,13.88
2022-09-14T09:44:15.387Z,14.27
2022-09-14T09:47:01.487Z,12.77
2022-09-14T09:49:27.845Z,13.20
2022-09-14T09:51:55.002Z,13.15
2022-09-14T09:54:23.561Z,12.48
2022-09-14T09:56:49.863Z,13.80
2022-09-14T09:59:22.298Z,12.80
2022-09-14T10:01:48.873Z,11.85
2022-09-14T10:04:19.522Z,11.38
2022-09-14T10:06:48.157Z,11.15
2022-09-14T10:09:16.952Z,12.55
2022-09-14T10:11:43.598Z,10.25
2022-09-14T10:14:28.714Z,9.95
2022-09-14T10:17:03.995Z,9.60
2022-09-14T10:19:30.606Z,10.02
2022-09-14T10:22:17.455Z,9.32
2022-09-14T10:25:07.231Z,10.30
2022-09-14T10:27:39.761Z,8.95
2022-09-14T10:30:17.474Z,9.13
2022-09-14T10:32:46.042Z,8.63
2022-09-14T10:35:13.891Z,9.20
2022-09-14T10:37:50.620Z,11.00
2022-09-14T10:43:03.618Z,8.02
2022-09-14T10:48:02.468Z,7.50
2022-09-14T10:50:43.898Z,7.97
2022-09-14T10:53:19.810Z,7.85
2022-09-14T10:56:01.752Z,8.38
2022-09-14T10:58:34.275Z,7.68
2022-09-14T11:01:05.007Z,8.18
2022-09-14T11:03:46.455Z,8.50
2022-09-14T11:06:31.507Z,7.53
2022-09-14T11:08:57.825Z,7.72
2022-09-14T11:11:24.219Z,6.80
2022-09-14T11:14:02.788Z,6.50
2022-09-14T11:17:04.685Z,6.30
2022-09-14T11:19:33.646Z,5.35
2022-09-14T11:22:12.310Z,4.95
2022-09-14T11:24:50.566Z,4.60
2022-09-14T11:27:49.513Z,5.18
2022-09-14T11:30:17.869Z,5.82
2022-09-14T11:32:55.945Z,7.10
2022-09-14T11:35:25.270Z,8.25
2022-09-14T11:37:54.428Z,5.53
2022-09-14T11:40:24.964Z,5.32
2022-09-14T11:43:08.650Z,5.90
2022-09-14T11:45:42.360Z,5.60
2022-09-14T11:48:38.605Z,6.03
2022-09-14T11:51:07.036Z,5.70
2022-09-14T11:53:33.707Z,4.82
2022-09-14T11:58:29.615Z,4.50
2022-09-14T12:01:01.664Z,6.60
2022-09-14T12:03:51.156Z,6.32
2022-09-14T12:06:30.198Z,4.30
2022-09-14T12:09:16.964Z,7.82
2022-09-14T12:11:43.942Z,5.25
2022-09-14T12:14:14.563Z,5.07
2022-09-14T12:16:59.458Z,5.30
2022-09-14T12:19:26.939Z,5.43
2022-09-14T12:21:53.686Z,3.80
2022-09-14T12:24:22.831Z,3.90
2022-09-14T12:26:49.255Z,4.30
2022-09-14T12:31:47.404Z,3.97
2022-09-14T12:34:15.929Z,5.15
2022-09-14T12:36:42.377Z,5.20
2022-09-14T12:41:34.961Z,4.78
2022-09-14T12:44:01.412Z,5.38
2022-09-14T12:46:27.770Z,5.43
2022-09-14T12:51:28.540Z,4.60
2022-09-14T12:54:13.474Z,5.80
2022-09-14T12:56:39.819Z,5.28
2022-09-14T12:59:28.113Z,5.18
2022-09-14T13:02:17.873Z,5.15
2022-09-14T13:04:45.743Z,5.30
2022-09-14T13:07:16.058Z,9.77
2022-09-14T13:09:49.908Z,5.00
2022-09-14T13:12:23.685Z,4.80
2022-09-14T13:14:53.862Z,4.78
2022-09-14T13:17:20.211Z,6.30
2022-09-14T13:20:00.193Z,5.05
2022-09-14T13:22:29.359Z,4.40
2022-09-14T13:24:56.389Z,4.47
2022-09-14T13:27:33.792Z,5.07
2022-09-14T13:30:18.661Z,4.75
2022-09-14T13:32:46.371Z,5.38
2022-09-14T13:35:17.480Z,4.50
2022-09-14T13:37:48.215Z,3.75
2022-09-14T13:40:14.971Z,5.10
2022-09-14T13:42:41.461Z,4.13
2022-09-14T13:45:08.588Z,4.38
2022-09-14T13:47:35.003Z,3.63
2022-09-14T13:50:01.499Z,3.88
2022-09-14T13:52:49.708Z,4.63
2022-09-14T13:55:18.499Z,4.75
2022-09-14T13:58:03.641Z,4.03
2022-09-14T14:00:31.009Z,4.28
2022-09-14T14:03:04.486Z,5.90
2022-09-14T14:05:34.815Z,5.07
2022-09-14T14:08:02.750Z,6.68
2022-09-14T14:10:34.198Z,4.50
2022-09-14T14:13:01.288Z,4.15
2022-09-14T14:15:27.612Z,3.15
2022-09-14T14:17:54.555Z,3.78
2022-09-14T14:20:24.018Z,3.28
2022-09-14T14:22:57.338Z,3.33
2022-09-14T14:25:34.663Z,4.47
2022-09-14T14:28:02.317Z,3.83
2022-09-14T14:30:30.241Z,2.70
2022-09-14T14:32:57.481Z,3.28
2022-09-14T14:35:29.757Z,3.90
2022-09-14T14:37:56.412Z,3.22
2022-09-14T14:40:23.401Z,2.60
2022-09-14T14:42:50.424Z,3.75
2022-09-14T14:45:20.984Z,4.47
2022-09-14T14:47:48.023Z,2.85
2022-09-14T14:50:15.448Z,6.07
2022-09-14T14:52:41.784Z,5.65
2022-09-14T14:55:08.714Z,2.75
2022-09-14T14:57:35.402Z,3.30
2022-09-14T15:00:01.960Z,2.90
2022-09-14T15:02:28.302Z,3.17
2022-09-14T15:04:54.626Z,3.88
2022-09-14T15:07:20.951Z,3.33
2022-09-14T15:09:47.290Z,3.95
2022-09-14T15:12:13.671Z,3.88
2022-09-14T15:14:40.003Z,2.60
2022-09-14T15:17:06.488Z,5.22
2022-09-14T15:19:32.871Z,3.35
2022-09-14T15:22:01.637Z,3.72
2022-09-14T15:24:28.708Z,3.13
2022-09-14T15:26:55.731Z,3.80
2022-09-14T15:29:22.059Z,3.13
2022-09-14T15:34:14.740Z,3.80
2022-09-14T15:39:08.410Z,3.35
2022-09-14T15:41:34.924Z,5.68
2022-09-14T15:44:01.548Z,2.58
2022-09-14T15:46:27.923Z,3.92
2022-09-14T15:51:20.687Z,2.80
2022-09-14T15:56:14.842Z,3.42
2022-09-14T15:58:45.932Z,3.35
2022-09-14T16:01:15.504Z,2.80
2022-09-14T16:03:42.723Z,1.98
2022-09-14T16:06:09.930Z,2.83
2022-09-14T16:08:37.103Z,2.33
2022-09-14T16:11:04.215Z,2.15
2022-09-14T16:13:30.994Z,2.72
2022-09-14T16:16:04.612Z,3.55
2022-09-14T16:18:30.974Z,5.03
2022-09-14T16:21:02.814Z,2.95
2022-09-14T16:23:29.169Z,3.08
2022-09-14T16:25:55.535Z,2.47
2022-09-14T16:28:21.921Z,2.58
2022-09-14T16:30:48.274Z,3.08
2022-09-14T16:33:15.918Z,3.97
2022-09-14T16:35:42.254Z,2.28
2022-09-14T16:38:08.586Z,4.50
2022-09-14T16:40:35.231Z,3.05
2022-09-14T16:43:01.650Z,3.28
2022-09-14T16:45:27.997Z,4.07
2022-09-14T16:47:54.335Z,4.13
2022-09-14T16:50:21.010Z,3.77
2022-09-14T16:52:47.352Z,6.30
2022-09-14T16:55:13.742Z,3.53
2022-09-14T16:57:40.119Z,2.80
2022-09-14T17:00:07.098Z,3.93
2022-09-14T17:02:33.576Z,3.92
2022-09-14T17:04:59.961Z,3.65
2022-09-14T17:07:26.357Z,3.17
2022-09-14T17:09:52.830Z,2.33
2022-09-14T17:12:19.206Z,2.92
2022-09-14T17:14:46.722Z,4.53
2022-09-14T17:17:13.088Z,5.07
2022-09-14T17:19:43.702Z,3.63
2022-09-14T17:22:10.827Z,4.88
2022-09-14T17:24:37.215Z,4.53
2022-09-14T17:27:03.633Z,4.37
2022-09-14T17:29:31.925Z,4.53
2022-09-14T17:31:58.325Z,4.47
2022-09-14T17:34:24.716Z,3.87
2022-09-14T17:36:51.062Z,5.10
2022-09-14T17:39:17.382Z,8.50
2022-09-14T17:41:44.134Z,6.80
2022-09-14T17:44:12.039Z,5.90
2022-09-14T17:46:45.416Z,5.78
2022-09-14T17:49:13.973Z,9.30
2022-09-14T17:51:40.381Z,9.68
2022-09-14T17:54:06.801Z,8.27
2022-09-14T17:56:33.162Z,9.90
2022-09-14T17:59:01.506Z,10.90
2022-09-14T18:01:28.397Z,7.30
2022-09-14T18:03:58.799Z,9.70
2022-09-14T18:06:27.836Z,10.43
2022-09-14T18:08:55.267Z,14.13
2022-09-14T18:11:22.337Z,30.60
2022-09-14T18:13:49.354Z,24.23
2022-09-14T18:16:16.986Z,15.98
2022-09-14T18:18:43.699Z,13.48
2022-09-14T18:21:10.514Z,14.90
2022-09-14T18:23:37.043Z,13.02
2022-09-14T18:26:04.604Z,13.73
2022-09-14T18:28:31.059Z,13.07
2022-09-14T18:31:01.257Z,11.13
2022-09-14T18:33:28.105Z,14.85
2022-09-14T18:35:54.802Z,10.63
2022-09-14T18:38:21.191Z,11.25
2022-09-14T18:40:47.762Z,20.38
2022-09-14T18:43:16.697Z,19.00
2022-09-14T18:45:46.564Z,13.50
2022-09-14T18:48:13.351Z,14.45
2022-09-14T18:50:40.348Z,13.60
2022-09-14T18:53:06.751Z,13.15
2022-09-14T18:55:33.690Z,10.55
2022-09-14T18:58:00.282Z,10.20
2022-09-14T19:00:26.631Z,8.93
2022-09-14T19:02:53.798Z,10.73
2022-09-14T19:05:20.502Z,11.95
2022-09-14T19:07:46.915Z,11.50
2022-09-14T19:10:14.161Z,11.90
2022-09-14T19:12:40.632Z,10.10
2022-09-14T19:15:07.164Z,11.10
2022-09-14T19:17:33.499Z,8.07
2022-09-14T19:19:59.928Z,10.45
2022-09-14T19:22:28.238Z,11.57
2022-09-14T19:24:54.622Z,7.80
2022-09-14T19:27:21.066Z,8.77
2022-09-14T19:29:47.379Z,8.95
2022-09-14T19:32:13.854Z,8.73
2022-09-14T19:34:40.246Z,7.40
2022-09-14T19:37:06.545Z,7.72
2022-09-14T19:39:32.906Z,7.10
2022-09-14T19:41:59.272Z,8.43
2022-09-14T19:44:25.577Z,12.35
2022-09-14T19:46:52.346Z,10.65
2022-09-14T19:49:23.011Z,8.68
2022-09-14T19:51:49.586Z,9.00
2022-09-14T19:54:16.202Z,10.07
2022-09-14T19:56:42.923Z,7.88
2022-09-14T19:59:09.624Z,11.67
2022-09-14T20:01:37.516Z,9.30
2022-09-14T20:04:04.982Z,11.40
2022-09-14T20:06:32.787Z,6.93
2022-09-14T20:09:00.512Z,4.88
2022-09-14T20:11:27.846Z,7.40
2022-09-14T20:13:55.391Z,7.30
2022-09-14T20:18:48.834Z,6.33
2022-09-14T20:21:17.510Z,4.88
2022-09-14T20:24:04.493Z,3.80
2022-09-14T20:26:30.605Z,4.00
2022-09-14T20:28:57.807Z,2.70
2022-09-14T20:31:24.313Z,3.10
2022-09-14T20:33:51.092Z,4.55
2022-09-14T20:36:19.844Z,2.25
2022-09-14T20:38:50.204Z,2.58
2022-09-14T20:41:18.004Z,3.97
2022-09-14T20:43:48.940Z,4.25
2022-09-14T20:46:17.534Z,1.90
2022-09-14T20:48:44.105Z,5.78
2022-09-14T20:51:10.507Z,2.40
2022-09-14T20:53:37.604Z,1.60
2022-09-14T20:56:05.828Z,2.67
2022-09-14T20:58:33.219Z,1.70
2022-09-14T21:01:04.319Z,2.05
2022-09-14T21:03:31.306Z,1.55
2022-09-14T21:06:01.690Z,1.42
2022-09-14T21:08:31.513Z,2.10
2022-09-14T21:10:57.935Z,3.22
2022-09-14T21:13:24.834Z,2.00
2022-09-14T21:15:51.261Z,1.80
2022-09-14T21:18:20.702Z,2.40
2022-09-14T21:20:47.266Z,2.13
2022-09-14T21:23:13.631Z,1.77
2022-09-14T21:25:39.996Z,2.92
2022-09-14T21:28:06.342Z,1.48
2022-09-14T21:30:32.717Z,1.17
2022-09-14T21:32:59.139Z,1.92
2022-09-14T21:35:27.442Z,1.63
2022-09-14T21:37:55.564Z,1.98
2022-09-14T21:40:22.212Z,3.42
2022-09-14T21:42:48.591Z,1.40
2022-09-14T21:45:14.939Z,1.30
2022-09-14T21:47:41.347Z,1.60
2022-09-14T21:50:07.961Z,1.52
2022-09-14T21:52:34.295Z,1.97
2022-09-14T21:55:00.618Z,2.08
2022-09-14T21:57:26.994Z,3.72
2022-09-14T21:59:53.360Z,2.03
2022-09-14T22:02:19.806Z,2.65
2022-09-14T22:04:46.267Z,3.13
2022-09-14T22:07:12.620Z,1.52
2022-09-14T22:09:39.014Z,1.80
2022-09-14T22:12:05.481Z,1.40
2022-09-14T22:14:32.018Z,1.05
2022-09-14T22:16:58.482Z,1.88
2022-09-14T22:19:26.189Z,1.25
2022-09-14T22:21:53.227Z,2.45
2022-09-14T22:24:21.557Z,2.15
2022-09-14T22:26:48.004Z,2.67
2022-09-14T22:29:14.685Z,1.70
2022-09-14T22:31:42.189Z,2.60
2022-09-14T22:34:08.819Z,1.80
2022-09-14T22:36:35.278Z,2.80
2022-09-14T22:39:01.851Z,3.08
2022-09-14T22:41:28.469Z,1.40
2022-09-14T22:43:55.320Z,2.15
2022-09-14T22:46:22.539Z,2.30
2022-09-14T22:48:50.422Z,1.40
2022-09-14T22:51:18.643Z,2.05
2022-09-14T22:53:45.072Z,1.75
2022-09-14T22:56:18.994Z,1.98
2022-09-14T22:58:45.947Z,1.15
2022-09-14T23:01:18.550Z,1.00
2022-09-14T23:03:45.204Z,3.13
2022-09-14T23:06:11.574Z,1.58
2022-09-14T23:08:38.293Z,2.10
2022-09-14T23:11:05.837Z,1.93
2022-09-14T23:16:01.070Z,3.20
2022-09-14T23:18:27.920Z,1.88
2022-09-14T23:20:54.288Z,2.17
2022-09-14T23:23:20.655Z,0.95
2022-09-14T23:25:47.051Z,1.58
2022-09-14T23:28:13.371Z,1.35
2022-09-14T23:30:39.834Z,1.58
2022-09-14T23:33:06.906Z,1.95
2022-09-14T23:35:37.034Z,2.47
2022-09-14T23:38:04.145Z,2.60
2022-09-14T23:40:30.562Z,2.63
2022-09-14T23:42:56.999Z,2.85
2022-09-14T23:45:23.384Z,1.75
2022-09-14T23:47:49.752Z,3.00
2022-09-14T23:50:16.258Z,2.40
2022-09-14T23:52:42.822Z,2.65
2022-09-14T23:55:09.347Z,4.80
2022-09-14T23:57:36.661Z,1.98
